Time;durP1;ratioP1;P1;durP2;ratioP2;P2;SDS_P1;SDS_P2;PMS_P1;PMS_P2;Temp;Humidity;BMP_temperature;BMP_pressure;BME280_temperature;BME280_humidity;BME280_pressure;Samples;Min_cycle;Max_cycle;Signal;HPM_P1;HPM_P2
2023/12/19 00:03:16;;;;;;;3.58;2.60;;;;;;;0.33;100.00;99768.53;10423221;28;20041;-63
2023/12/19 00:08:18;;;;;;;4.10;2.75;;;;;;;0.30;100.00;99773.34;10441246;28;20060;-63
2023/12/19 00:13:21;;;;;;;2.95;2.17;;;;;;;0.38;100.00;99755.16;10431317;28;20037;-63
2023/12/19 00:18:24;;;;;;;3.78;2.60;;;;;;;0.38;100.00;99730.88;10431593;28;20041;-63
2023/12/19 00:23:30;;;;;;;3.10;2.45;;;;;;;0.30;100.00;99708.59;10442924;28;20071;-63
2023/12/19 00:28:32;;;;;;;3.55;2.80;;;;;;;0.36;100.00;99685.25;10448267;28;20045;-63
2023/12/19 00:33:35;;;;;;;3.65;2.67;;;;;;;0.37;100.00;99675.28;10423485;28;20053;-63
2023/12/19 00:38:37;;;;;;;4.63;3.28;;;;;;;0.33;100.00;99660.59;10444455;28;20034;-62
2023/12/19 00:43:44;;;;;;;4.25;3.10;;;;;;;0.29;100.00;99657.56;10447036;28;20041;-63
2023/12/19 00:48:46;;;;;;;4.97;2.97;;;;;;;0.27;100.00;99648.88;10449623;28;20398;-63
2023/12/19 00:53:48;;;;;;;6.13;3.47;;;;;;;0.34;100.00;99624.47;10421422;28;20519;-64
2023/12/19 00:58:51;;;;;;;5.90;3.70;;;;;;;0.38;100.00;99606.75;10444121;28;20041;-64
2023/12/19 01:03:55;;;;;;;6.05;3.40;;;;;;;0.33;100.00;99598.53;10442119;28;20053;-64
2023/12/19 01:08:58;;;;;;;4.72;2.97;;;;;;;0.32;100.00;99595.00;10447927;28;20532;-63
2023/12/19 01:14:00;;;;;;;5.05;2.75;;;;;;;0.30;100.00;99584.47;10444890;28;20041;-63
2023/12/19 01:19:03;;;;;;;5.43;3.03;;;;;;;0.30;100.00;99579.06;10446012;28;20036;-63
2023/12/19 01:24:05;;;;;;;3.55;2.15;;;;;;;0.31;100.00;99585.28;10441679;28;20045;-63
2023/12/19 01:29:07;;;;;;;3.15;2.55;;;;;;;0.30;100.00;99559.38;10444465;28;20048;-63
2023/12/19 01:34:11;;;;;;;2.92;1.75;;;;;;;0.30;100.00;99572.84;10438471;28;20037;-63
2023/12/19 01:39:13;;;;;;;1.90;1.30;;;;;;;0.28;100.00;99543.41;10445781;28;20038;-63
2023/12/19 01:44:19;;;;;;;1.92;1.45;;;;;;;0.29;100.00;99536.16;10424577;28;20049;-63
2023/12/19 01:49:21;;;;;;;2.65;1.10;;;;;;;0.25;100.00;99533.13;10443253;28;20080;-63
2023/12/19 01:54:24;;;;;;;1.45;0.85;;;;;;;0.24;100.00;99527.97;10431799;28;20424;-63
2023/12/19 01:59:27;;;;;;;0.80;0.70;;;;;;;0.23;100.00;99496.66;10436532;28;20045;-63
2023/12/19 02:04:30;;;;;;;1.05;0.77;;;;;;;0.25;100.00;99503.44;10438794;28;20067;-63
2023/12/19 02:09:34;;;;;;;1.02;0.70;;;;;;;0.23;100.00;99492.06;10438034;28;20033;-63
2023/12/19 02:14:36;;;;;;;0.70;0.68;;;;;;;0.25;100.00;99437.88;10456493;28;20048;-63
2023/12/19 02:19:48;;;;;;;0.80;0.65;;;;;;;0.28;100.00;99421.19;10443860;28;20040;-63
2023/12/19 02:24:51;;;;;;;0.70;0.63;;;;;;;0.28;100.00;99405.81;10436882;28;20455;-63
2023/12/19 02:29:53;;;;;;;0.60;0.60;;;;;;;0.30;100.00;99386.69;10433982;28;20405;-63
2023/12/19 02:34:56;;;;;;;0.98;0.70;;;;;;;0.29;100.00;99372.38;10431913;28;20044;-63
2023/12/19 02:39:58;;;;;;;0.70;0.60;;;;;;;0.34;100.00;99363.53;10431668;28;20402;-63
2023/12/19 02:45:01;;;;;;;0.60;0.60;;;;;;;0.33;100.00;99371.88;10424926;28;20053;-63
2023/12/19 02:50:05;;;;;;;1.27;1.08;;;;;;;0.33;100.00;99356.53;10436714;28;20416;-63
2023/12/19 02:55:07;;;;;;;1.38;0.70;;;;;;;0.33;100.00;99344.91;10436254;28;20120;-63
2023/12/19 03:00:10;;;;;;;0.75;0.75;;;;;;;0.33;100.00;99328.72;10440972;28;20509;-64
2023/12/19 03:05:13;;;;;;;0.70;0.70;;;;;;;0.34;100.00;99314.16;10440499;28;20041;-63
2023/12/19 03:10:16;;;;;;;0.82;0.57;;;;;;;0.32;100.00;99295.53;10441472;28;20044;-63
2023/12/19 03:15:18;;;;;;;0.80;0.70;;;;;;;0.39;100.00;99281.88;10439698;28;20037;-63
2023/12/19 03:20:20;;;;;;;0.52;0.52;;;;;;;0.44;100.00;99260.34;10437742;28;20394;-63
2023/12/19 03:25:23;;;;;;;0.52;0.52;;;;;;;0.41;100.00;99240.09;10416801;28;20038;-63
2023/12/19 03:30:26;;;;;;;0.70;0.70;;;;;;;0.46;100.00;99209.66;10435985;28;20040;-63
2023/12/19 03:35:28;;;;;;;1.52;0.55;;;;;;;0.51;100.00;99188.94;10439925;28;20037;-63
2023/12/19 03:40:31;;;;;;;0.60;0.60;;;;;;;0.56;100.00;99166.59;10438468;28;20061;-63
2023/12/19 03:45:33;;;;;;;1.42;0.80;;;;;;;0.58;100.00;99145.56;10437172;28;20061;-63
2023/12/19 03:50:35;;;;;;;0.73;0.60;;;;;;;0.73;100.00;99120.63;10436298;28;20052;-64
2023/12/19 03:55:38;;;;;;;0.68;0.60;;;;;;;0.82;100.00;99119.09;10439627;28;20514;-64
2023/12/19 04:00:42;;;;;;;0.80;0.80;;;;;;;0.86;100.00;99099.44;10442680;28;20045;-66
2023/12/19 04:05:45;;;;;;;1.42;0.80;;;;;;;0.89;100.00;99058.44;10446554;28;20049;-65
2023/12/19 04:10:49;;;;;;;0.98;0.75;;;;;;;0.97;100.00;99035.53;10445171;28;20037;-64
2023/12/19 04:15:51;;;;;;;1.35;0.75;;;;;;;1.03;100.00;99029.09;10444473;28;20041;-65
2023/12/19 04:20:53;;;;;;;1.13;1.02;;;;;;;1.09;100.00;99011.88;10443779;28;20100;-64
2023/12/19 04:25:56;;;;;;;1.00;0.88;;;;;;;1.13;100.00;99004.06;10440899;28;20571;-64
2023/12/19 04:30:58;;;;;;;1.83;1.00;;;;;;;1.16;100.00;98984.63;10445619;28;20029;-64
2023/12/19 04:36:01;;;;;;;2.25;0.95;;;;;;;1.24;100.00;98962.53;10449455;28;20398;-64
2023/12/19 04:41:04;;;;;;;0.95;0.70;;;;;;;1.29;100.00;98945.53;10447931;28;20048;-63
2023/12/19 04:46:10;;;;;;;1.55;0.80;;;;;;;1.29;100.00;98929.31;10444554;28;20068;-63
2023/12/19 04:51:19;;;;;;;1.75;0.85;;;;;;;1.35;100.00;98912.84;10455693;28;20064;-64
2023/12/19 04:56:23;;;;;;;1.35;0.82;;;;;;;1.37;100.00;98889.06;10448611;28;20057;-64
2023/12/19 05:01:26;;;;;;;0.82;0.60;;;;;;;1.38;100.00;98860.97;10449410;28;20053;-64
2023/12/19 05:06:28;;;;;;;0.20;0.20;;;;;;;1.44;100.00;98851.03;10447074;28;20049;-64
2023/12/19 05:11:31;;;;;;;0.98;0.80;;;;;;;1.43;100.00;98834.00;10446422;28;20048;-64
2023/12/19 05:16:33;;;;;;;0.90;0.80;;;;;;;1.40;100.00;98812.09;10450983;28;20049;-64
2023/12/19 05:21:38;;;;;;;1.10;0.98;;;;;;;1.40;100.00;98794.00;10446030;28;20041;-64
2023/12/19 05:26:41;;;;;;;1.10;1.00;;;;;;;1.36;100.00;98773.97;10444683;28;20052;-64
2023/12/19 05:31:43;;;;;;;1.58;1.25;;;;;;;1.35;100.00;98752.59;10444332;28;20044;-64
2023/12/19 05:36:46;;;;;;;1.55;1.02;;;;;;;1.36;100.00;98738.84;10445105;28;20049;-64
2023/12/19 05:41:48;;;;;;;1.52;1.02;;;;;;;1.36;100.00;98722.63;10445314;28;20409;-64
2023/12/19 05:46:52;;;;;;;0.73;0.68;;;;;;;1.37;100.00;98693.69;10441813;28;20061;-64
2023/12/19 05:51:54;;;;;;;1.33;0.95;;;;;;;1.38;100.00;98677.22;10444361;28;20030;-64
2023/12/19 05:56:57;;;;;;;1.30;0.90;;;;;;;1.40;100.00;98644.56;10446737;28;20053;-64
2023/12/19 06:01:59;;;;;;;1.98;1.02;;;;;;;1.45;100.00;98645.34;10445524;28;20041;-64
2023/12/19 06:07:03;;;;;;;1.38;0.80;;;;;;;1.43;100.00;98635.91;10461447;28;20060;-64
2023/12/19 06:12:07;;;;;;;1.08;0.85;;;;;;;1.46;100.00;98598.31;10443036;28;20037;-64
2023/12/19 06:17:09;;;;;;;2.28;0.98;;;;;;;1.51;100.00;98584.78;10443627;28;20049;-64
2023/12/19 06:22:14;;;;;;;1.20;0.95;;;;;;;1.53;100.00;98576.41;10440483;28;20041;-64
2023/12/19 06:27:16;;;;;;;1.30;1.08;;;;;;;1.56;100.00;98558.84;10428600;28;20562;-62
2023/12/19 06:32:19;;;;;;;1.27;0.82;;;;;;;1.58;100.00;98540.47;10439480;28;20056;-63
2023/12/19 06:37:21;;;;;;;1.90;1.27;;;;;;;1.60;100.00;98513.97;10441582;28;20044;-64
2023/12/19 06:42:25;;;;;;;2.53;1.20;;;;;;;1.64;100.00;98496.13;10443908;28;20037;-63
2023/12/19 06:47:28;;;;;;;1.70;1.27;;;;;;;1.69;100.00;98490.69;10440462;28;20060;-64
2023/12/19 06:52:30;;;;;;;1.90;1.65;;;;;;;1.73;100.00;98470.13;10440657;28;20036;-64
2023/12/19 06:57:33;;;;;;;1.70;0.90;;;;;;;1.75;100.00;98457.16;10441546;28;20037;-64
2023/12/19 07:02:36;;;;;;;0.73;0.73;;;;;;;1.81;100.00;98437.13;10442883;28;20421;-62
2023/12/19 07:07:38;;;;;;;0.60;0.57;;;;;;;1.83;100.00;98417.91;10443003;28;20048;-64
2023/12/19 07:12:41;;;;;;;0.68;0.57;;;;;;;1.80;100.00;98411.97;10443193;28;20421;-64
2023/12/19 07:17:43;;;;;;;0.82;0.80;;;;;;;1.80;100.00;98389.53;10469448;28;20046;-65
2023/12/19 07:22:45;;;;;;;0.98;0.88;;;;;;;1.79;100.00;98371.69;10427108;28;20049;-64
2023/12/19 07:27:48;;;;;;;1.08;0.93;;;;;;;1.81;100.00;98342.47;10435712;28;20056;-64
2023/12/19 07:32:51;;;;;;;2.15;1.08;;;;;;;1.80;100.00;98336.25;10438764;28;20398;-64
2023/12/19 07:37:53;;;;;;;1.23;0.98;;;;;;;1.79;100.00;98328.44;10444480;28;20636;-63
2023/12/19 07:42:58;;;;;;;1.05;0.80;;;;;;;1.77;100.00;98314.38;10443178;28;20412;-65
2023/12/19 07:48:00;;;;;;;1.30;0.90;;;;;;;1.77;100.00;98306.28;10436206;28;20095;-67
2023/12/19 07:53:03;;;;;;;0.77;0.73;;;;;;;1.71;100.00;98283.84;10436658;28;20041;-63
2023/12/19 07:58:06;;;;;;;0.70;0.70;;;;;;;1.72;100.00;98254.94;10436400;28;20034;-63
2023/12/19 08:03:09;;;;;;;0.50;0.50;;;;;;;1.69;100.00;98253.59;10439688;28;20049;-63
2023/12/19 08:08:11;;;;;;;0.50;0.50;;;;;;;1.70;100.00;98246.28;10438502;28;20513;-63
2023/12/19 08:13:14;;;;;;;0.77;0.70;;;;;;;1.70;100.00;98220.06;10441104;28;20041;-63
2023/12/19 08:18:16;;;;;;;1.70;0.60;;;;;;;1.67;100.00;98199.00;10441175;28;20045;-63
2023/12/19 08:23:19;;;;;;;0.63;0.35;;;;;;;1.68;100.00;98172.78;10431919;28;20074;-62
2023/12/19 08:28:22;;;;;;;1.30;0.50;;;;;;;1.72;100.00;98146.78;10419949;28;20056;-64
2023/12/19 08:33:24;;;;;;;0.60;0.60;;;;;;;1.72;100.00;98125.97;10437509;28;20036;-63
2023/12/19 08:38:27;;;;;;;0.60;0.52;;;;;;;1.77;100.00;98101.63;10442555;28;20456;-63
2023/12/19 08:43:30;;;;;;;0.55;0.50;;;;;;;1.81;100.00;98082.91;10443641;28;20038;-63
2023/12/19 08:48:32;;;;;;;0.50;0.50;;;;;;;1.82;100.00;98062.88;10447358;28;20061;-63
2023/12/19 08:53:35;;;;;;;0.68;0.60;;;;;;;1.81;100.00;98047.75;10445911;28;20041;-65
2023/12/19 08:58:38;;;;;;;0.85;0.70;;;;;;;1.87;100.00;98008.75;10445612;28;20044;-64
2023/12/19 09:03:40;;;;;;;0.73;0.73;;;;;;;1.88;100.00;97994.13;10444688;28;20041;-64
2023/12/19 09:08:42;;;;;;;0.60;0.60;;;;;;;1.90;100.00;97975.72;10447756;28;20044;-64
2023/12/19 09:13:45;;;;;;;0.20;0.20;;;;;;;1.97;100.00;97957.25;10443871;28;20038;-64
2023/12/19 09:18:47;;;;;;;0.47;0.47;;;;;;;2.05;100.00;97936.84;10439525;28;20417;-64
2023/12/19 09:23:49;;;;;;;0.45;0.40;;;;;;;2.06;100.00;97916.81;10446020;28;20049;-64
2023/12/19 09:28:51;;;;;;;1.02;0.30;;;;;;;2.09;100.00;97908.16;10441569;28;20038;-64
2023/12/19 09:33:54;;;;;;;0.70;0.32;;;;;;;2.13;100.00;97886.72;10440027;28;20048;-63
2023/12/19 09:38:56;;;;;;;0.20;0.20;;;;;;;2.17;100.00;97887.75;10444143;28;20045;-61
2023/12/19 09:43:59;;;;;;;0.52;0.13;;;;;;;2.20;100.00;97877.13;10435648;28;20056;-63
2023/12/19 09:49:02;;;;;;;0.20;0.20;;;;;;;2.19;100.00;97853.06;10348749;28;20042;-62
2023/12/19 09:54:04;;;;;;;0.20;0.20;;;;;;;2.21;100.00;97857.09;10356287;28;20037;-61
2023/12/19 09:59:08;;;;;;;0.47;0.30;;;;;;;2.25;100.00;97847.28;10361013;28;20046;-61
2023/12/19 10:04:13;;;;;;;0.20;0.20;;;;;;;2.28;100.00;97841.31;10356789;28;20069;-61
2023/12/19 10:09:16;;;;;;;0.25;0.25;;;;;;;2.33;100.00;97826.88;10359422;28;20038;-61
2023/12/19 10:14:21;;;;;;;0.25;0.22;;;;;;;2.34;100.00;97826.56;10356853;28;20038;-62
2023/12/19 10:19:27;;;;;;;0.40;0.17;;;;;;;2.40;100.00;97830.00;10359466;28;20046;-61
2023/12/19 10:24:30;;;;;;;0.75;0.17;;;;;;;2.44;100.00;97814.00;10353888;28;20054;-62
2023/12/19 10:29:40;;;;;;;0.25;0.25;;;;;;;2.45;100.00;97818.31;10356547;28;20406;-61
2023/12/19 10:34:46;;;;;;;0.20;0.20;;;;;;;2.50;100.00;97805.47;10357408;28;20038;-63
2023/12/19 10:39:48;;;;;;;0.45;0.30;;;;;;;2.53;100.00;97807.56;10354000;28;20049;-61
2023/12/19 10:44:51;;;;;;;0.32;0.32;;;;;;;2.73;100.00;97804.50;10371052;28;20065;-63
2023/12/19 10:49:53;;;;;;;1.55;0.57;;;;;;;2.83;100.00;97792.69;10436051;28;20040;-63
2023/12/19 10:55:04;;;;;;;1.02;0.47;;;;;;;2.85;100.00;97808.63;10441448;28;20048;-63
2023/12/19 11:00:10;;;;;;;1.25;0.63;;;;;;;2.79;100.00;97799.00;10436538;28;20046;-62
2023/12/19 11:05:45;;;;;;;0.90;0.52;;;;;;;2.92;100.00;97804.41;10445834;28;20048;-63
2023/12/19 11:11:00;;;;;;;0.13;0.13;;;;;;;3.02;100.00;97787.97;10437806;28;20893;-65
2023/12/19 11:16:09;;;;;;;0.13;0.13;;;;;;;3.01;100.00;97794.50;10436571;28;20044;-62
2023/12/19 11:21:20;;;;;;;0.40;0.40;;;;;;;3.07;100.00;97787.06;10415565;28;20063;-63
2023/12/19 11:26:35;;;;;;;0.45;0.35;;;;;;;3.06;100.00;97784.66;10433421;28;20044;-62
2023/12/19 11:31:37;;;;;;;0.90;0.82;;;;;;;3.03;100.00;97778.72;10422923;28;20038;-62
2023/12/19 11:36:41;;;;;;;1.17;0.82;;;;;;;3.00;100.00;97792.88;10420764;28;20127;-63
2023/12/19 11:41:44;;;;;;;1.33;0.68;;;;;;;2.95;100.00;97795.69;10422665;28;20505;-63
2023/12/19 11:46:46;;;;;;;0.57;0.30;;;;;;;2.93;100.00;97813.34;10428421;28;20050;-64
2023/12/19 11:51:50;;;;;;;1.05;0.57;;;;;;;2.93;100.00;97816.84;10432172;28;20473;-62
2023/12/19 11:57:01;;;;;;;0.93;0.40;;;;;;;2.92;100.00;97811.72;10441562;28;20034;-62
2023/12/19 12:02:03;;;;;;;0.40;0.40;;;;;;;2.88;100.00;97846.75;10438079;28;20037;-62
2023/12/19 12:07:06;;;;;;;1.17;0.40;;;;;;;2.87;100.00;97863.28;10431855;28;20037;-62
2023/12/19 12:12:10;;;;;;;1.35;0.40;;;;;;;2.85;100.00;97869.00;10435322;28;20631;-62
2023/12/19 12:17:20;;;;;;;1.27;0.28;;;;;;;2.82;100.00;97877.72;10424746;28;20037;-65
2023/12/19 12:22:24;;;;;;;1.50;0.57;;;;;;;2.73;100.00;97879.50;10439801;28;20065;-63
2023/12/19 12:27:30;;;;;;;4.22;1.00;;;;;;;2.65;100.00;97894.53;10439703;28;20045;-62
2023/12/19 12:32:34;;;;;;;0.32;0.20;;;;;;;2.57;100.00;97903.31;10430695;28;20088;-62
2023/12/19 12:37:36;;;;;;;0.60;0.30;;;;;;;2.44;100.00;97881.66;10445128;28;20041;-62
2023/12/19 12:42:39;;;;;;;2.72;0.50;;;;;;;2.33;100.00;97921.59;10436823;28;20428;-61
2023/12/19 12:47:43;;;;;;;1.55;0.30;;;;;;;2.20;100.00;97930.44;10430530;28;20049;-61
2023/12/19 12:52:45;;;;;;;2.92;0.57;;;;;;;2.06;100.00;97950.09;10443678;28;20037;-61
2023/12/19 12:57:59;;;;;;;1.27;0.50;;;;;;;2.00;100.00;97963.97;10437651;28;20045;-63
2023/12/19 13:03:02;;;;;;;2.10;0.60;;;;;;;1.92;100.00;97959.22;10441281;28;20045;-63
2023/12/19 13:08:04;;;;;;;1.75;0.60;;;;;;;1.92;100.00;97978.97;10436574;28;20045;-62
2023/12/19 13:13:08;;;;;;;0.55;0.20;;;;;;;1.91;100.00;97992.75;10438134;28;20033;-61
2023/12/19 13:18:11;;;;;;;1.35;0.30;;;;;;;1.86;100.00;97990.91;10443229;28;20036;-62
2023/12/19 13:23:13;;;;;;;0.40;0.30;;;;;;;1.86;100.00;97985.50;10435957;28;20045;-65
2023/12/19 13:28:17;;;;;;;1.13;0.43;;;;;;;1.88;100.00;97967.09;10438838;28;20029;-63
2023/12/19 13:33:21;;;;;;;1.50;0.40;;;;;;;1.88;100.00;97986.03;10470835;28;20036;-62
2023/12/19 13:38:23;;;;;;;2.50;0.30;;;;;;;1.91;100.00;97981.94;10441298;28;20037;-60
2023/12/19 13:43:26;;;;;;;0.52;0.50;;;;;;;1.92;100.00;97962.75;10436818;28;20033;-61
2023/12/19 13:48:29;;;;;;;0.55;0.28;;;;;;;1.89;100.00;97976.81;10434587;28;20429;-62
2023/12/19 13:53:31;;;;;;;2.85;0.70;;;;;;;1.87;100.00;98014.16;10443345;28;20029;-61
2023/12/19 13:58:33;;;;;;;0.73;0.60;;;;;;;1.96;100.00;98003.53;10442279;28;20095;-62
2023/12/19 14:03:38;;;;;;;0.57;0.28;;;;;;;1.98;100.00;98031.06;10444616;28;20033;-61
2023/12/19 14:08:42;;;;;;;0.85;0.60;;;;;;;2.01;100.00;98020.47;10439287;28;20046;-61
2023/12/19 14:13:45;;;;;;;0.52;0.50;;;;;;;2.06;100.00;98017.69;10439687;28;20485;-63
2023/12/19 14:18:47;;;;;;;0.43;0.32;;;;;;;2.05;100.00;98035.03;10435732;28;20051;-61
2023/12/19 14:23:50;;;;;;;0.38;0.28;;;;;;;2.05;100.00;98043.13;10439906;28;20037;-61
2023/12/19 14:28:56;;;;;;;0.65;0.35;;;;;;;2.06;100.00;98057.47;10443234;28;20048;-61
2023/12/19 14:33:58;;;;;;;0.52;0.10;;;;;;;2.00;100.00;98043.22;10444236;28;20046;-63
2023/12/19 14:39:00;;;;;;;0.25;0.17;;;;;;;2.04;100.00;98052.34;10442425;28;20036;-64
2023/12/19 14:44:02;;;;;;;1.80;0.15;;;;;;;2.06;99.41;98047.44;10438243;28;20036;-61
2023/12/19 14:49:05;;;;;;;0.55;0.10;;;;;;;2.11;98.23;98073.66;10438733;28;20049;-62
2023/12/19 14:54:07;;;;;;;0.95;0.50;;;;;;;2.10;97.62;98066.63;10437551;28;20041;-62
2023/12/19 14:59:09;;;;;;;2.60;0.60;;;;;;;2.04;98.25;98073.19;10439314;28;20041;-63
2023/12/19 15:04:15;;;;;;;0.25;0.15;;;;;;;1.99;97.96;98075.97;10433818;28;20064;-64
2023/12/19 15:09:19;;;;;;;1.88;0.50;;;;;;;1.95;98.12;98093.84;10437035;28;20666;-65
2023/12/19 15:14:23;;;;;;;1.73;0.70;;;;;;;1.98;97.35;98099.50;10438316;28;20044;-63
2023/12/19 15:19:25;;;;;;;1.05;0.40;;;;;;;1.98;97.87;98102.19;10441847;28;20041;-62
2023/12/19 15:24:28;;;;;;;0.85;0.50;;;;;;;2.03;96.39;98107.53;10422454;28;20042;-63
2023/12/19 15:29:30;;;;;;;0.43;0.32;;;;;;;2.01;96.15;98096.22;10419070;28;20037;-63
2023/12/19 15:34:34;;;;;;;0.47;0.30;;;;;;;1.98;96.99;98095.97;10439554;28;20860;-61
2023/12/19 15:39:36;;;;;;;0.70;0.47;;;;;;;1.98;96.69;98101.41;10429112;28;20045;-63
2023/12/19 15:44:39;;;;;;;0.30;0.22;;;;;;;2.00;96.66;98100.00;10429329;28;20061;-63
2023/12/19 15:49:41;;;;;;;0.40;0.28;;;;;;;1.94;96.29;98101.16;10444525;28;20791;-62
2023/12/19 15:54:45;;;;;;;0.70;0.30;;;;;;;1.91;96.34;98092.78;10447732;28;20040;-62
2023/12/19 15:59:49;;;;;;;1.85;0.38;;;;;;;1.84;96.15;98098.56;10432508;28;20045;-63
2023/12/19 16:04:52;;;;;;;0.08;0.08;;;;;;;1.77;96.85;98107.03;10441307;28;20041;-63
2023/12/19 16:09:54;;;;;;;0.30;0.30;;;;;;;1.74;96.67;98112.19;10445788;28;20537;-62
2023/12/19 16:14:57;;;;;;;0.45;0.35;;;;;;;1.69;96.34;98113.03;10444483;28;20030;-61
2023/12/19 16:20:01;;;;;;;0.30;0.30;;;;;;;1.62;95.39;98109.88;10447245;28;20041;-62
2023/12/19 16:25:04;;;;;;;1.27;0.52;;;;;;;1.68;94.91;98080.88;10442871;28;20037;-63
2023/12/19 16:30:07;;;;;;;0.30;0.22;;;;;;;1.82;93.87;98092.63;10445809;28;20029;-62
2023/12/19 16:35:10;;;;;;;0.32;0.28;;;;;;;1.80;92.69;98094.81;10445366;28;20030;-62
2023/12/19 16:40:12;;;;;;;1.40;0.43;;;;;;;1.72;92.82;98104.34;10442175;28;20037;-62
2023/12/19 16:45:15;;;;;;;3.25;1.00;;;;;;;1.84;91.90;98095.84;10418633;28;20132;-63
2023/12/19 16:50:17;;;;;;;5.63;1.00;;;;;;;1.69;91.06;98106.81;10437135;28;20041;-64
2023/12/19 16:55:19;;;;;;;0.20;0.20;;;;;;;1.83;90.84;98094.25;10445818;28;20108;-63
2023/12/19 17:00:23;;;;;;;0.98;0.50;;;;;;;1.77;90.42;98109.72;10446614;28;20041;-63
2023/12/19 17:05:25;;;;;;;1.50;0.20;;;;;;;1.71;90.62;98096.53;10446653;28;20047;-62
2023/12/19 17:10:28;;;;;;;3.90;0.60;;;;;;;1.63;90.35;98113.38;10435474;28;20033;-63
2023/12/19 17:15:30;;;;;;;3.33;0.73;;;;;;;1.67;90.92;98101.69;10445867;28;20398;-64
2023/12/19 17:20:33;;;;;;;1.70;0.40;;;;;;;1.61;91.20;98102.84;10425504;28;20557;-63
2023/12/19 17:25:36;;;;;;;2.50;0.52;;;;;;;1.68;90.82;98097.09;10434876;28;20049;-61
2023/12/19 17:30:38;;;;;;;4.78;0.63;;;;;;;1.65;90.02;98108.47;10427480;28;20048;-62
2023/12/19 17:35:41;;;;;;;0.38;0.25;;;;;;;1.69;89.24;98090.59;10443166;28;20045;-63
2023/12/19 17:40:44;;;;;;;1.73;0.65;;;;;;;1.64;89.72;98098.75;10430760;28;20038;-64
2023/12/19 17:45:47;;;;;;;0.93;0.30;;;;;;;1.53;89.30;98092.63;10443813;28;20056;-65
2023/12/19 17:50:50;;;;;;;1.55;0.45;;;;;;;1.54;89.72;98093.44;10438994;28;20037;-63
2023/12/19 17:55:53;;;;;;;1.58;0.40;;;;;;;1.61;88.10;98102.84;10440891;28;20532;-64
2023/12/19 18:00:55;;;;;;;5.88;0.45;;;;;;;1.58;87.72;98098.03;10443354;28;20037;-63
2023/12/19 18:05:58;;;;;;;0.82;0.47;;;;;;;1.55;88.52;98089.66;10442360;28;20044;-64
2023/12/19 18:11:02;;;;;;;1.90;0.52;;;;;;;1.63;88.02;98084.44;10419052;28;20493;-63
2023/12/19 18:16:05;;;;;;;0.40;0.30;;;;;;;1.62;88.17;98098.25;10434617;28;20041;-63
2023/12/19 18:21:09;;;;;;;4.00;0.35;;;;;;;1.68;87.57;98097.91;10439017;28;20033;-63
2023/12/19 18:26:11;;;;;;;1.40;0.40;;;;;;;1.70;86.93;98111.13;10436494;28;20049;-63
2023/12/19 18:31:14;;;;;;;0.10;0.10;;;;;;;1.50;87.51;98091.31;10438190;28;20036;-62
2023/12/19 18:36:22;;;;;;;3.05;0.52;;;;;;;1.65;87.47;98100.38;10438569;28;20041;-63
2023/12/19 18:41:24;;;;;;;1.27;0.60;;;;;;;1.54;87.06;98101.56;10439139;28;20040;-62
2023/12/19 18:46:28;;;;;;;1.52;0.30;;;;;;;1.57;87.64;98091.00;10428980;28;20045;-62
2023/12/19 18:51:31;;;;;;;2.47;0.68;;;;;;;1.47;87.62;98086.47;10440637;28;20037;-63
2023/12/19 18:56:33;;;;;;;0.20;0.20;;;;;;;1.59;88.20;98077.19;10438561;28;20046;-63
2023/12/19 19:01:36;;;;;;;1.65;0.60;;;;;;;1.53;87.73;98081.81;10430388;28;20037;-63
2023/12/19 19:06:42;;;;;;;3.63;0.70;;;;;;;1.50;88.19;98088.63;10439443;28;20046;-62
2023/12/19 19:11:47;;;;;;;1.80;0.30;;;;;;;1.46;88.25;98092.97;10428784;28;20582;-63
2023/12/19 19:16:49;;;;;;;1.10;0.45;;;;;;;1.51;89.21;98097.53;10438829;28;20041;-63
2023/12/19 19:21:52;;;;;;;0.47;0.35;;;;;;;1.28;89.06;98101.78;10437196;28;20038;-64
2023/12/19 19:26:55;;;;;;;2.03;0.50;;;;;;;1.21;89.52;98085.06;10431202;28;20763;-63
2023/12/19 19:31:57;;;;;;;2.72;0.50;;;;;;;1.23;90.74;98080.22;10421040;28;20064;-64
2023/12/19 19:37:00;;;;;;;0.50;0.40;;;;;;;1.25;89.95;98085.34;10432340;28;20037;-63
2023/12/19 19:42:05;;;;;;;1.27;0.60;;;;;;;1.28;90.10;98096.38;10439911;28;20033;-63
2023/12/19 19:47:09;;;;;;;4.60;0.85;;;;;;;1.18;90.73;98089.16;10434593;28;20060;-64
2023/12/19 19:52:13;;;;;;;2.25;0.80;;;;;;;1.26;90.73;98079.66;10440366;28;20081;-63
2023/12/19 19:57:16;;;;;;;0.35;0.30;;;;;;;1.13;90.57;98085.69;10434759;28;20034;-63
2023/12/19 20:02:18;;;;;;;2.53;0.50;;;;;;;1.08;90.60;98083.03;10430122;28;20506;-63
2023/12/19 20:07:21;;;;;;;0.75;0.40;;;;;;;0.97;91.13;98093.09;10470847;28;20052;-62
2023/12/19 20:12:23;;;;;;;0.73;0.43;;;;;;;0.86;91.84;98092.34;10438395;28;20040;-63
2023/12/19 20:17:26;;;;;;;1.35;0.52;;;;;;;0.90;91.72;98090.72;10438499;28;20048;-63
2023/12/19 20:22:29;;;;;;;2.42;0.40;;;;;;;0.89;91.33;98088.31;10436927;28;20066;-63
2023/12/19 20:27:31;;;;;;;2.08;0.80;;;;;;;0.88;91.53;98075.91;10433779;28;20129;-62
2023/12/19 20:32:34;;;;;;;0.85;0.40;;;;;;;0.88;91.59;98057.00;10431362;28;20046;-61
2023/12/19 20:37:37;;;;;;;4.43;1.00;;;;;;;0.93;91.06;98064.25;10445760;28;20424;-62
2023/12/19 20:42:39;;;;;;;3.65;1.08;;;;;;;0.94;90.81;98058.56;10446706;28;20038;-62
2023/12/19 20:47:41;;;;;;;2.20;0.85;;;;;;;0.91;90.36;98034.84;10445365;28;20064;-62
2023/12/19 20:52:44;;;;;;;0.88;0.50;;;;;;;0.85;90.02;98041.34;10441181;28;20041;-63
2023/12/19 20:57:48;;;;;;;2.28;0.60;;;;;;;0.88;89.47;98030.81;10453658;28;20504;-61
2023/12/19 21:02:50;;;;;;;1.50;0.60;;;;;;;0.83;90.08;98044.34;10427294;28;20045;-64
2023/12/19 21:07:53;;;;;;;1.60;0.60;;;;;;;0.78;90.57;98038.19;10446429;28;20049;-62
2023/12/19 21:12:56;;;;;;;1.83;0.70;;;;;;;0.60;90.34;98034.25;10449796;28;20042;-59
2023/12/19 21:17:59;;;;;;;1.95;0.50;;;;;;;0.53;90.82;98031.88;10442851;28;20075;-61
2023/12/19 21:23:01;;;;;;;1.77;0.70;;;;;;;0.53;90.21;98029.19;10429898;28;20034;-61
2023/12/19 21:28:06;;;;;;;1.00;0.55;;;;;;;0.69;89.17;98021.75;10438819;28;20057;-61
2023/12/19 21:33:08;;;;;;;1.08;0.70;;;;;;;0.59;89.55;98024.53;10455693;28;20033;-60
2023/12/19 21:38:12;;;;;;;2.53;0.77;;;;;;;0.57;89.93;98035.63;10439383;28;20049;-62
2023/12/19 21:43:15;;;;;;;2.15;0.70;;;;;;;0.59;90.26;98051.53;10438744;28;20536;-62
2023/12/19 21:48:17;;;;;;;0.57;0.43;;;;;;;0.62;90.39;98032.06;10435646;28;20468;-61
2023/12/19 21:53:20;;;;;;;2.42;0.85;;;;;;;0.63;90.01;98025.59;10432441;28;20406;-60
2023/12/19 21:58:22;;;;;;;1.23;0.50;;;;;;;0.64;90.31;98015.59;10433459;28;20037;-60
2023/12/19 22:03:24;;;;;;;2.58;0.70;;;;;;;0.65;90.49;98007.22;10419388;28;20041;-61
2023/12/19 22:08:27;;;;;;;1.35;0.60;;;;;;;0.64;90.37;97985.91;10444388;28;20045;-60
2023/12/19 22:13:30;;;;;;;2.28;0.65;;;;;;;0.62;89.74;97983.50;10443164;28;20026;-61
2023/12/19 22:18:33;;;;;;;4.05;0.68;;;;;;;0.59;90.08;98005.66;10425004;28;20043;-61
2023/12/19 22:23:36;;;;;;;2.60;0.60;;;;;;;0.61;89.56;98008.88;10436682;28;20053;-61
2023/12/19 22:28:38;;;;;;;1.88;0.88;;;;;;;0.62;89.17;97997.00;10436266;28;20057;-61
2023/12/19 22:33:41;;;;;;;1.60;0.70;;;;;;;0.57;89.64;98005.13;10438844;28;20037;-61
2023/12/19 22:38:43;;;;;;;0.82;0.60;;;;;;;0.54;90.00;98005.69;10436854;28;20030;-61
2023/12/19 22:43:48;;;;;;;0.68;0.50;;;;;;;0.55;89.55;98018.09;10436483;28;20048;-60
2023/12/19 22:48:50;;;;;;;3.50;0.93;;;;;;;0.53;90.02;97996.81;10437411;28;20049;-61
2023/12/19 22:53:53;;;;;;;1.98;0.85;;;;;;;0.60;89.47;97978.38;10428276;28;20033;-61
2023/12/19 22:58:55;;;;;;;1.08;0.82;;;;;;;0.60;89.32;97988.38;10444347;28;20037;-61
2023/12/19 23:03:58;;;;;;;1.38;0.52;;;;;;;0.52;88.66;97972.78;10437230;28;20037;-61
2023/12/19 23:09:01;;;;;;;5.18;0.93;;;;;;;0.52;89.47;97989.78;10439987;28;20044;-61
2023/12/19 23:14:04;;;;;;;0.88;0.60;;;;;;;0.55;88.90;97993.81;10439595;28;20033;-61
2023/12/19 23:19:06;;;;;;;2.72;0.88;;;;;;;0.60;88.46;97980.28;10439577;28;20115;-62
2023/12/19 23:24:09;;;;;;;3.70;1.13;;;;;;;0.60;88.59;97980.28;10434689;28;20033;-60
2023/12/19 23:29:12;;;;;;;4.25;1.20;;;;;;;0.54;88.57;97976.81;10435906;28;20049;-61
2023/12/19 23:34:16;;;;;;;1.73;0.98;;;;;;;0.49;88.90;97978.72;10434920;28;20037;-61
2023/12/19 23:39:18;;;;;;;0.90;0.90;;;;;;;0.48;88.63;97994.13;10437627;28;20037;-61